M.t. King Everest — V7DB8 — position and weather

sailwx.info

Track history (hours):
 
Tides and Currents Weather Stations Pressure Air Temp Water Temp Dewpoint Dewpoint Depression Visibility Wind Speed Wind Dir Waves Ship Positions

M.t. King Everest

Last reported at 2015-Apr-01 19:17 UTC. Time now 2015-Apr-02 03:09 UTC.
Position N 52°10' E 003°39'.

Length 181 m; draft 7.1 m.

Type: Ship. MMSI: 538090267.

Date/timePositionNaut miles runAvg speedWind from/ knotsBaromVisibWave heightAir tempDewpointWater temp
2015-Apr-01 19:17N 52°10' E 003°39'0 0.1
2015-Apr-01 14:26N 52°11' E 003°38'2 2.5
2015-Apr-01 13:30N 52°13' E 003°39'1 1.2
2015-Apr-01 12:15N 52°14' E 003°41'2 2.4
2015-Apr-01 11:33N 52°12' E 003°42'2 2.1
2015-Apr-01 10:33N 52°10' E 003°41'2 2.4
2015-Apr-01 09:33N 52°08' E 003°43'1 0.5
2015-Apr-01 07:25N 52°07' E 003°44'0 0.0
2015-Apr-01 06:28N 52°07' E 003°44'0 0.1
2015-Apr-01 05:19N 52°08' E 003°44'0 0.1
2015-Apr-01 04:22N 52°08' E 003°44'0 0.1
2015-Apr-01 01:16N 52°08' E 003°44'0 0.1
2015-Mar-31 21:19N 52°08' E 003°43'0 0.1
2015-Mar-31 20:10N 52°08' E 003°43'0 0.0
2015-Mar-31 19:19N 52°08' E 003°43'0 0.0
2015-Mar-31 17:28N 52°08' E 003°43'0 0.0
2015-Mar-31 16:10N 52°08' E 003°43'0 0.0
2015-Mar-31 15:07N 52°08' E 003°43'0 0.1
2015-Mar-31 14:28N 52°08' E 003°43'0 0.0
2015-Mar-31 10:10N 52°08' E 003°43'0 0.3
2015-Mar-31 08:31N 52°08' E 003°42'0 0.1
2015-Mar-31 07:19N 52°08' E 003°42'0 0.0
2015-Mar-31 04:07N 52°08' E 003°42'0 0.1
2015-Mar-31 03:25N 52°08' E 003°42'0 0.1
2015-Mar-31 02:31N 52°08' E 003°41'0 0.2
2015-Mar-31 01:10N 52°08' E 003°41'0 0.0
2015-Mar-30 23:31N 52°08' E 003°41'0 0.0
2015-Mar-30 21:10N 52°08' E 003°41'0 0.1
2015-Mar-30 20:31N 52°08' E 003°41'0 0.0
2015-Mar-30 19:16N 52°08' E 003°41'0 0.2
2015-Mar-30 18:25N 52°08' E 003°41'0 0.0
2015-Mar-30 17:25N 52°08' E 003°41'0 0.1
2015-Mar-30 16:31N 52°08' E 003°41'0 0.0
2015-Mar-30 15:13N 52°08' E 003°41'0 0.1
2015-Mar-30 12:33N 52°08' E 003°41'0 0.1
2015-Mar-30 11:06N 52°08' E 003°42'0 0.1
2015-Mar-30 09:21N 52°08' E 003°41'0 0.1
2015-Mar-30 07:09N 52°08' E 003°41'0 0.0
2015-Mar-30 05:27N 52°08' E 003°41'0 0.0
2015-Mar-30 02:21N 52°08' E 003°41'0 0.0
2015-Mar-30 00:09N 52°08' E 003°41'0 0.0
2015-Mar-29 23:21N 52°08' E 003°41'0 0.0
2015-Mar-29 22:06N 52°08' E 003°41'0 0.0
2015-Mar-29 21:30N 52°08' E 003°41'0 0.0
2015-Mar-29 20:33N 52°08' E 003°41'0 0.0
2015-Mar-29 19:24N 52°08' E 003°41'0 0.0
2015-Mar-29 18:12N 52°08' E 003°41'0 0.0
2015-Mar-29 16:18N 52°08' E 003°41'0 0.1
2015-Mar-29 15:24N 52°08' E 003°40'0 0.1
2015-Mar-29 13:30N 52°08' E 003°40'0 0.0
2015-Mar-29 12:30N 52°08' E 003°40'0 0.0
2015-Mar-29 11:21N 52°08' E 003°40'0 0.0
2015-Mar-29 10:21N 52°08' E 003°40'0 0.0
2015-Mar-29 09:30N 52°08' E 003°40'0 0.0
2015-Mar-29 08:27N 52°08' E 003°40'0 0.0
2015-Mar-29 07:33N 52°08' E 003°40'0 0.0
2015-Mar-29 06:18N 52°08' E 003°40'0 0.0
2015-Mar-29 05:33N 52°08' E 003°40'0 0.0
2015-Mar-29 04:30N 52°08' E 003°40'0 0.0
2015-Mar-29 03:21N 52°08' E 003°40'0 0.0
2015-Mar-29 02:27N 52°08' E 003°40'0 0.0
2015-Mar-29 01:18N 52°08' E 003°40'0 0.0
2015-Mar-29 00:09N 52°08' E 003°40'0 0.0
2015-Mar-28 23:33N 52°08' E 003°40'0 0.0
2015-Mar-28 20:33N 52°08' E 003°40'0 0.0
2015-Mar-28 19:18N 52°08' E 003°40'0 0.0
2015-Mar-28 18:30N 52°08' E 003°40'0 0.0
2015-Mar-28 17:12N 52°08' E 003°40'0 0.0
2015-Mar-28 15:30N 52°08' E 003°40'0 0.0
2015-Mar-28 14:12N 52°08' E 003°40'0 0.0
2015-Mar-28 13:33N 52°08' E 003°40'0 0.0
2015-Mar-28 11:33N 52°08' E 003°40'0 0.0
2015-Mar-28 09:24N 52°08' E 003°40'0 0.0
2015-Mar-28 06:21N 52°08' E 003°40'0 0.0
2015-Mar-28 05:33N 52°08' E 003°40'0 0.1
2015-Mar-28 04:33N 52°08' E 003°40'1 0.5
2015-Mar-28 03:33N 52°07' E 003°39'9 9.1
2015-Mar-28 02:33N 52°02' E 003°51'10 9.5
2015-Mar-28 01:33N 51°58' E 004°05'4 3.4
2015-Mar-28 00:29N 51°58' E 003°59'0 0.0
2015-Mar-27 23:29N 51°58' E 003°59'0 0.0
2015-Mar-27 22:26N 51°58' E 003°59'0 0.0
2015-Mar-27 21:08N 51°58' E 003°59'0 0.0
2015-Mar-27 20:29N 51°58' E 003°59'0 0.0
2015-Mar-27 19:32N 51°58' E 003°59'0 0.0
2015-Mar-27 18:08N 51°58' E 003°59'0 0.0
2015-Mar-27 17:32N 51°58' E 003°59'0 0.0
2015-Mar-27 16:32N 51°58' E 003°59'0 0.0
2015-Mar-27 15:32N 51°58' E 003°59'0 0.0
2015-Mar-27 14:32N 51°58' E 003°59'0 0.0
2015-Mar-27 13:29N 51°58' E 003°59'0 0.0
2015-Mar-27 12:32N 51°58' E 003°59'0 0.0
2015-Mar-27 11:29N 51°58' E 003°59'0 0.0
2015-Mar-27 10:17N 51°58' E 003°59'0 0.0
2015-Mar-27 08:29N 51°58' E 003°59'0 0.0
2015-Mar-27 07:32N 51°58' E 003°59'0 0.0
2015-Mar-27 06:26N 51°58' E 003°59'0 0.0
2015-Mar-27 05:32N 51°58' E 003°59'0 0.0
2015-Mar-27 04:32N 51°58' E 003°59'0 0.0
2015-Mar-27 03:17N 51°58' E 003°59'0 0.0
2015-Mar-27 02:23N 51°58' E 003°59'0 0.0
2015-Mar-27 01:11N 51°58' E 003°59'0 0.0
2015-Mar-27 00:29N 51°58' E 003°59'0 0.0
2015-Mar-26 23:17N 51°58' E 003°59'0 0.0
2015-Mar-26 22:32N 51°58' E 003°59'0 0.0
2015-Mar-26 21:29N 51°58' E 003°59'0 0.0
2015-Mar-26 18:32N 51°58' E 003°59'0 0.0
2015-Mar-26 17:34N 51°58' E 003°59'0 0.0
2015-Mar-26 16:34N 51°58' E 003°59'4 3.5
2015-Mar-26 15:33N 51°58' E 004°05'9 8.9
2015-Mar-26 14:34N 52°00' E 003°51'10 9.1
2015-Mar-26 13:29N 51°57' E 003°36'5 1.5
2015-Mar-26 10:05N 51°55' E 003°29'0 0.0
2015-Mar-26 08:32N 51°55' E 003°29'0 0.0
2015-Mar-26 06:20N 51°55' E 003°29'0 0.0
2015-Mar-26 05:11N 51°55' E 003°29'0 0.1
2015-Mar-26 00:29N 51°55' E 003°29'0 0.0
2015-Mar-25 23:20N 51°55' E 003°29'0 0.0
2015-Mar-25 22:20N 51°55' E 003°29'0 0.0
2015-Mar-25 21:29N 51°55' E 003°29'0 0.2
2015-Mar-25 20:32N 51°55' E 003°29'0 0.0
2015-Mar-25 19:32N 51°55' E 003°29'0 0.0
2015-Mar-25 18:32N 51°55' E 003°29'0 0.1
2015-Mar-25 15:32N 51°55' E 003°29'0 0.1
2015-Mar-25 14:29N 51°54' E 003°29'0 0.0
2015-Mar-25 13:26N 51°55' E 003°29'0 0.0
2015-Mar-25 12:05N 51°55' E 003°29'0 0.0
2015-Mar-25 11:26N 51°55' E 003°29'0 0.0
2015-Mar-25 10:20N 51°55' E 003°29'0 0.0
2015-Mar-25 09:20N 51°54' E 003°29'0 0.1
2015-Mar-25 06:32N 51°55' E 003°29'0 0.0
2015-Mar-25 04:20N 51°55' E 003°29'0 0.2
2015-Mar-25 03:32N 51°55' E 003°29'0 0.1
2015-Mar-25 01:32N 51°55' E 003°29'0 0.0
2015-Mar-25 00:32N 51°55' E 003°29'0 0.0
2015-Mar-24 18:17N 51°55' E 003°29'0 0.0
2015-Mar-24 17:23N 51°55' E 003°29'0 0.0
2015-Mar-24 16:17N 51°55' E 003°29'0 0.0
2015-Mar-24 05:11N 51°55' E 003°29'0 0.1
2015-Mar-24 03:25N 51°55' E 003°29'5 5.3
2015-Mar-24 02:33N 51°56' E 003°22'25810.7
2015-Mar-23 02:33N 55°52' E 006°17'1211.8
2015-Mar-23 01:32N 56°03' E 006°26'1211.9
2015-Mar-23 00:33N 56°13' E 006°34'1711.8
2015-Mar-22 23:07N 56°29' E 006°47'  
Track history (hours):
 
Tides and Currents Weather Stations Pressure Air Temp Water Temp Dewpoint Dewpoint Depression Visibility Wind Speed Wind Dir Waves Ship Positions

M.t. King Everest

Last reported at 2015-Apr-01 19:17 UTC. Time now 2015-Apr-02 03:09 UTC.
Position N 52°10' E 003°39'.

Length 181 m; draft 7.1 m.

Type: Ship. MMSI: 538090267.

Date/timePositionNaut miles runAvg speedWind from/ knotsBaromVisibWave heightAir tempDewpointWater temp
2015-Apr-01 19:17N 52°10' E 003°39'0 0.1
2015-Apr-01 14:26N 52°11' E 003°38'2 2.5
2015-Apr-01 13:30N 52°13' E 003°39'1 1.2
2015-Apr-01 12:15N 52°14' E 003°41'2 2.4
2015-Apr-01 11:33N 52°12' E 003°42'2 2.1
2015-Apr-01 10:33N 52°10' E 003°41'2 2.4
2015-Apr-01 09:33N 52°08' E 003°43'1 0.5
2015-Apr-01 07:25N 52°07' E 003°44'0 0.0
2015-Apr-01 06:28N 52°07' E 003°44'0 0.1
2015-Apr-01 05:19N 52°08' E 003°44'0 0.1
2015-Apr-01 04:22N 52°08' E 003°44'0 0.1
2015-Apr-01 01:16N 52°08' E 003°44'0 0.1
2015-Mar-31 21:19N 52°08' E 003°43'0 0.1
2015-Mar-31 20:10N 52°08' E 003°43'0 0.0
2015-Mar-31 19:19N 52°08' E 003°43'0 0.0
2015-Mar-31 17:28N 52°08' E 003°43'0 0.0
2015-Mar-31 16:10N 52°08' E 003°43'0 0.0
2015-Mar-31 15:07N 52°08' E 003°43'0 0.1
2015-Mar-31 14:28N 52°08' E 003°43'0 0.0
2015-Mar-31 10:10N 52°08' E 003°43'0 0.3
2015-Mar-31 08:31N 52°08' E 003°42'0 0.1
2015-Mar-31 07:19N 52°08' E 003°42'0 0.0
2015-Mar-31 04:07N 52°08' E 003°42'0 0.1
2015-Mar-31 03:25N 52°08' E 003°42'0 0.1
2015-Mar-31 02:31N 52°08' E 003°41'0 0.2
2015-Mar-31 01:10N 52°08' E 003°41'0 0.0
2015-Mar-30 23:31N 52°08' E 003°41'0 0.0
2015-Mar-30 21:10N 52°08' E 003°41'0 0.1
2015-Mar-30 20:31N 52°08' E 003°41'0 0.0
2015-Mar-30 19:16N 52°08' E 003°41'0 0.2
2015-Mar-30 18:25N 52°08' E 003°41'0 0.0
2015-Mar-30 17:25N 52°08' E 003°41'0 0.1
2015-Mar-30 16:31N 52°08' E 003°41'0 0.0
2015-Mar-30 15:13N 52°08' E 003°41'0 0.1
2015-Mar-30 12:33N 52°08' E 003°41'0 0.1
2015-Mar-30 11:06N 52°08' E 003°42'0 0.1
2015-Mar-30 09:21N 52°08' E 003°41'0 0.1
2015-Mar-30 07:09N 52°08' E 003°41'0 0.0
2015-Mar-30 05:27N 52°08' E 003°41'0 0.0
2015-Mar-30 02:21N 52°08' E 003°41'0 0.0
2015-Mar-30 00:09N 52°08' E 003°41'0 0.0
2015-Mar-29 23:21N 52°08' E 003°41'0 0.0
2015-Mar-29 22:06N 52°08' E 003°41'0 0.0
2015-Mar-29 21:30N 52°08' E 003°41'0 0.0
2015-Mar-29 20:33N 52°08' E 003°41'0 0.0
2015-Mar-29 19:24N 52°08' E 003°41'0 0.0
2015-Mar-29 18:12N 52°08' E 003°41'0 0.0
2015-Mar-29 16:18N 52°08' E 003°41'0 0.1
2015-Mar-29 15:24N 52°08' E 003°40'0 0.1
2015-Mar-29 13:30N 52°08' E 003°40'0 0.0
2015-Mar-29 12:30N 52°08' E 003°40'0 0.0
2015-Mar-29 11:21N 52°08' E 003°40'0 0.0
2015-Mar-29 10:21N 52°08' E 003°40'0 0.0
2015-Mar-29 09:30N 52°08' E 003°40'0 0.0
2015-Mar-29 08:27N 52°08' E 003°40'0 0.0
2015-Mar-29 07:33N 52°08' E 003°40'0 0.0
2015-Mar-29 06:18N 52°08' E 003°40'0 0.0
2015-Mar-29 05:33N 52°08' E 003°40'0 0.0
2015-Mar-29 04:30N 52°08' E 003°40'0 0.0
2015-Mar-29 03:21N 52°08' E 003°40'0 0.0
2015-Mar-29 02:27N 52°08' E 003°40'0 0.0
2015-Mar-29 01:18N 52°08' E 003°40'0 0.0
2015-Mar-29 00:09N 52°08' E 003°40'0 0.0
2015-Mar-28 23:33N 52°08' E 003°40'0 0.0
2015-Mar-28 20:33N 52°08' E 003°40'0 0.0
2015-Mar-28 19:18N 52°08' E 003°40'0 0.0
2015-Mar-28 18:30N 52°08' E 003°40'0 0.0
2015-Mar-28 17:12N 52°08' E 003°40'0 0.0
2015-Mar-28 15:30N 52°08' E 003°40'0 0.0
2015-Mar-28 14:12N 52°08' E 003°40'0 0.0
2015-Mar-28 13:33N 52°08' E 003°40'0 0.0
2015-Mar-28 11:33N 52°08' E 003°40'0 0.0
2015-Mar-28 09:24N 52°08' E 003°40'0 0.0
2015-Mar-28 06:21N 52°08' E 003°40'0 0.0
2015-Mar-28 05:33N 52°08' E 003°40'0 0.1
2015-Mar-28 04:33N 52°08' E 003°40'1 0.5
2015-Mar-28 03:33N 52°07' E 003°39'9 9.1
2015-Mar-28 02:33N 52°02' E 003°51'10 9.5
2015-Mar-28 01:33N 51°58' E 004°05'4 3.4
2015-Mar-28 00:29N 51°58' E 003°59'0 0.0
2015-Mar-27 23:29N 51°58' E 003°59'0 0.0
2015-Mar-27 22:26N 51°58' E 003°59'0 0.0
2015-Mar-27 21:08N 51°58' E 003°59'0 0.0
2015-Mar-27 20:29N 51°58' E 003°59'0 0.0
2015-Mar-27 19:32N 51°58' E 003°59'0 0.0
2015-Mar-27 18:08N 51°58' E 003°59'0 0.0
2015-Mar-27 17:32N 51°58' E 003°59'0 0.0
2015-Mar-27 16:32N 51°58' E 003°59'0 0.0
2015-Mar-27 15:32N 51°58' E 003°59'0 0.0
2015-Mar-27 14:32N 51°58' E 003°59'0 0.0
2015-Mar-27 13:29N 51°58' E 003°59'0 0.0
2015-Mar-27 12:32N 51°58' E 003°59'0 0.0
2015-Mar-27 11:29N 51°58' E 003°59'0 0.0
2015-Mar-27 10:17N 51°58' E 003°59'0 0.0
2015-Mar-27 08:29N 51°58' E 003°59'0 0.0
2015-Mar-27 07:32N 51°58' E 003°59'0 0.0
2015-Mar-27 06:26N 51°58' E 003°59'0 0.0
2015-Mar-27 05:32N 51°58' E 003°59'0 0.0
2015-Mar-27 04:32N 51°58' E 003°59'0 0.0
2015-Mar-27 03:17N 51°58' E 003°59'0 0.0
2015-Mar-27 02:23N 51°58' E 003°59'0 0.0
2015-Mar-27 01:11N 51°58' E 003°59'0 0.0
2015-Mar-27 00:29N 51°58' E 003°59'0 0.0
2015-Mar-26 23:17N 51°58' E 003°59'0 0.0
2015-Mar-26 22:32N 51°58' E 003°59'0 0.0
2015-Mar-26 21:29N 51°58' E 003°59'0 0.0
2015-Mar-26 18:32N 51°58' E 003°59'0 0.0
2015-Mar-26 17:34N 51°58' E 003°59'0 0.0
2015-Mar-26 16:34N 51°58' E 003°59'4 3.5
2015-Mar-26 15:33N 51°58' E 004°05'9 8.9
2015-Mar-26 14:34N 52°00' E 003°51'10 9.1
2015-Mar-26 13:29N 51°57' E 003°36'5 1.5
2015-Mar-26 10:05N 51°55' E 003°29'0 0.0
2015-Mar-26 08:32N 51°55' E 003°29'0 0.0
2015-Mar-26 06:20N 51°55' E 003°29'0 0.0
2015-Mar-26 05:11N 51°55' E 003°29'0 0.1
2015-Mar-26 00:29N 51°55' E 003°29'0 0.0
2015-Mar-25 23:20N 51°55' E 003°29'0 0.0
2015-Mar-25 22:20N 51°55' E 003°29'0 0.0
2015-Mar-25 21:29N 51°55' E 003°29'0 0.2
2015-Mar-25 20:32N 51°55' E 003°29'0 0.0
2015-Mar-25 19:32N 51°55' E 003°29'0 0.0
2015-Mar-25 18:32N 51°55' E 003°29'0 0.1
2015-Mar-25 15:32N 51°55' E 003°29'0 0.1
2015-Mar-25 14:29N 51°54' E 003°29'0 0.0
2015-Mar-25 13:26N 51°55' E 003°29'0 0.0
2015-Mar-25 12:05N 51°55' E 003°29'0 0.0
2015-Mar-25 11:26N 51°55' E 003°29'0 0.0
2015-Mar-25 10:20N 51°55' E 003°29'0 0.0
2015-Mar-25 09:20N 51°54' E 003°29'0 0.1
2015-Mar-25 06:32N 51°55' E 003°29'0 0.0
2015-Mar-25 04:20N 51°55' E 003°29'0 0.2
2015-Mar-25 03:32N 51°55' E 003°29'0 0.1
2015-Mar-25 01:32N 51°55' E 003°29'0 0.0
2015-Mar-25 00:32N 51°55' E 003°29'0 0.0
2015-Mar-24 18:17N 51°55' E 003°29'0 0.0
2015-Mar-24 17:23N 51°55' E 003°29'0 0.0
2015-Mar-24 16:17N 51°55' E 003°29'0 0.0
2015-Mar-24 05:11N 51°55' E 003°29'0 0.1
2015-Mar-24 03:25N 51°55' E 003°29'5 5.3
2015-Mar-24 02:33N 51°56' E 003°22'25810.7
2015-Mar-23 02:33N 55°52' E 006°17'1211.8
2015-Mar-23 01:32N 56°03' E 006°26'1211.9
2015-Mar-23 00:33N 56°13' E 006°34'1711.8
2015-Mar-22 23:07N 56°29' E 006°47'  

Dump ship's entire track history